createdAt,value
2017-11-04T00:00:40.579Z,100637.64
2017-11-04T00:03:18.475Z,100643.17
2017-11-04T00:06:00.793Z,100631.27
2017-11-04T00:08:42.184Z,100635.97
2017-11-04T00:11:19.425Z,100637.64
2017-11-04T00:13:56.724Z,100640.65
2017-11-04T00:16:34.807Z,100635.97
2017-11-04T00:19:11.280Z,100634.25
2017-11-04T00:21:53.724Z,100629.17
2017-11-04T00:24:30.131Z,100627.91
2017-11-04T00:27:11.556Z,100635.11
2017-11-04T00:29:50.447Z,100632.55
2017-11-04T00:32:29.713Z,100633.85
2017-11-04T00:35:06.811Z,100628.75
2017-11-04T00:37:50.203Z,100636.80
2017-11-04T00:40:27.182Z,100647.02
2017-11-04T00:43:04.142Z,100643.20
2017-11-04T00:45:42.747Z,100643.22
2017-11-04T00:48:25.105Z,100636.86
2017-11-04T00:51:01.959Z,100659.75
2017-11-04T00:53:40.801Z,100643.20
2017-11-04T00:56:21.811Z,100647.43
2017-11-04T00:59:08.363Z,100647.88
2017-11-04T01:01:45.196Z,100644.91
2017-11-04T01:04:24.812Z,100648.73
2017-11-04T01:07:03.816Z,100656.35
2017-11-04T01:09:47.285Z,100649.58
2017-11-04T01:12:25.862Z,100651.72
2017-11-04T01:15:09.134Z,100654.67
2017-11-04T01:17:46.524Z,100652.97
2017-11-04T01:20:27.868Z,100660.63
2017-11-04T01:23:04.714Z,100661.46
2017-11-04T01:25:42.852Z,100660.23
2017-11-04T01:28:20.644Z,100664.02
2017-11-04T01:31:05.445Z,100662.33
2017-11-04T01:33:50.740Z,100667.86
2017-11-04T01:36:31.039Z,100670.41
2017-11-04T01:39:07.428Z,100675.50
2017-11-04T01:41:44.721Z,100678.88
2017-11-04T01:44:25.576Z,100681.02
2017-11-04T01:47:06.353Z,100688.64
2017-11-04T01:49:54.404Z,100688.64
2017-11-04T01:52:32.013Z,100695.83
2017-11-04T01:55:12.987Z,100694.56
2017-11-04T01:57:50.637Z,100700.90
2017-11-04T02:00:27.255Z,100700.48
2017-11-04T02:03:05.531Z,100706.84
2017-11-04T02:05:43.260Z,100711.53
2017-11-04T02:08:20.179Z,100716.61
2017-11-04T02:10:57.114Z,100714.50
2017-11-04T02:13:34.464Z,100722.55
2017-11-04T02:16:19.886Z,100725.48
2017-11-04T02:18:56.639Z,100727.14
2017-11-04T02:21:35.756Z,100733.09
2017-11-04T02:27:09.637Z,100741.59
2017-11-04T02:29:41.868Z,100744.98
2017-11-04T02:32:27.505Z,100744.98
2017-11-04T02:35:05.548Z,100747.09
2017-11-04T02:37:42.688Z,100754.30
2017-11-04T02:40:20.026Z,100758.08
2017-11-04T02:43:01.678Z,100756.41
2017-11-04T02:45:38.592Z,100756.02
2017-11-04T02:48:15.010Z,100757.70
2017-11-04T02:50:54.497Z,100760.27
2017-11-04T02:53:31.133Z,100760.67
2017-11-04T02:56:08.353Z,100763.64
2017-11-04T02:58:37.280Z,100765.79
2017-11-04T03:01:19.028Z,100766.20
2017-11-04T03:03:55.722Z,100771.32
2017-11-04T03:06:35.578Z,100765.80
2017-11-04T03:09:12.431Z,100768.77
2017-11-04T03:11:51.800Z,100767.51
2017-11-04T03:14:31.192Z,100762.42
2017-11-04T03:17:13.619Z,100761.59
2017-11-04T03:19:49.963Z,100766.67
2017-11-04T03:22:28.171Z,100772.17
2017-11-04T03:25:05.915Z,100776.86
2017-11-04T03:27:48.450Z,100769.22
2017-11-04T03:30:27.316Z,100769.66
2017-11-04T03:33:15.485Z,100778.12
2017-11-04T03:35:56.190Z,100781.93
2017-11-04T03:38:35.484Z,100782.80
2017-11-04T03:41:11.813Z,100784.05
2017-11-04T03:46:34.183Z,100788.30
2017-11-04T03:49:15.042Z,100788.72
2017-11-04T03:51:51.512Z,100780.66
2017-11-04T03:54:29.761Z,100786.61
2017-11-04T03:57:12.544Z,100786.61
2017-11-04T03:59:51.680Z,100785.77
2017-11-04T04:02:28.844Z,100784.50
2017-11-04T04:05:08.140Z,100789.58
2017-11-04T04:07:44.879Z,100791.27
2017-11-04T04:10:21.682Z,100786.63
2017-11-04T04:12:58.074Z,100792.12
2017-11-04T04:15:37.801Z,100787.45
2017-11-04T04:18:17.260Z,100796.78
2017-11-04T04:20:54.589Z,100795.51
2017-11-04T04:23:32.662Z,100787.89
2017-11-04T04:26:12.460Z,100791.27
2017-11-04T04:28:49.688Z,100795.53
2017-11-04T04:31:29.714Z,100796.81
2017-11-04T04:34:00.725Z,100799.77
2017-11-04T04:36:40.000Z,100802.31
2017-11-04T04:39:16.712Z,100801.87
2017-11-04T04:41:55.365Z,100806.98
2017-11-04T04:44:32.119Z,100810.36
2017-11-04T04:47:08.742Z,100806.14
2017-11-04T04:49:45.239Z,100812.47
2017-11-04T04:52:27.089Z,100815.02
2017-11-04T04:55:03.641Z,100817.58
2017-11-04T05:00:35.983Z,100820.96
2017-11-04T05:03:14.428Z,100822.66
2017-11-04T05:05:53.421Z,100827.33
2017-11-04T05:08:30.094Z,100830.69
2017-11-04T05:13:50.513Z,100829.84
2017-11-04T05:16:35.964Z,100831.15
2017-11-04T05:19:12.341Z,100842.14
2017-11-04T05:21:51.595Z,100851.47
2017-11-04T05:24:30.937Z,100852.77
2017-11-04T05:27:21.800Z,100852.31
2017-11-04T05:32:44.108Z,100866.30
2017-11-04T05:35:13.173Z,100873.94
2017-11-04T05:37:52.732Z,100884.11
2017-11-04T05:40:29.284Z,100882.41
2017-11-04T05:43:08.743Z,100891.31
2017-11-04T05:45:54.432Z,100892.16
2017-11-04T05:48:42.642Z,100897.66
2017-11-04T05:53:34.844Z,100904.39
2017-11-04T05:56:12.585Z,100912.03
2017-11-04T05:58:49.226Z,100914.16
2017-11-04T06:01:35.350Z,100914.20
2017-11-04T06:04:11.709Z,100909.95
2017-11-04T06:06:52.081Z,100921.41
2017-11-04T06:09:31.156Z,100915.05
2017-11-04T06:12:09.010Z,100919.77
2017-11-04T06:14:55.789Z,100921.92
2017-11-04T06:17:32.487Z,100927.88
2017-11-04T06:20:17.460Z,100923.20
2017-11-04T06:22:59.912Z,100924.05
2017-11-04T06:25:43.353Z,100926.14
2017-11-04T06:28:25.744Z,100929.97
2017-11-04T06:31:05.127Z,100931.59
2017-11-04T06:33:44.784Z,100935.01
2017-11-04T06:36:21.115Z,100930.31
2017-11-04T06:38:59.863Z,100931.53
2017-11-04T06:41:38.030Z,100936.09
2017-11-04T06:44:17.109Z,100935.67
2017-11-04T06:47:00.584Z,100936.59
2017-11-04T06:49:39.379Z,100934.55
2017-11-04T06:52:20.504Z,100938.02
2017-11-04T06:54:58.169Z,100934.14
2017-11-04T06:57:27.140Z,100934.09
2017-11-04T07:00:05.176Z,100934.98
2017-11-04T07:02:41.640Z,100938.30
2017-11-04T07:05:23.094Z,100937.47
2017-11-04T07:07:59.533Z,100937.47
2017-11-04T07:10:36.537Z,100937.04
2017-11-04T07:13:14.268Z,100948.81
2017-11-04T07:15:50.913Z,100942.73
2017-11-04T07:18:28.570Z,100942.18
2017-11-04T07:21:09.076Z,100940.86
2017-11-04T07:23:46.841Z,100945.22
2017-11-04T07:26:24.793Z,100945.23
2017-11-04T07:29:01.958Z,100945.62
2017-11-04T07:31:39.466Z,100945.13
2017-11-04T07:34:17.308Z,100954.17
2017-11-04T07:36:54.548Z,100949.77
2017-11-04T07:39:32.547Z,100949.44
2017-11-04T07:42:11.416Z,100957.12
2017-11-04T07:44:47.959Z,100955.32
2017-11-04T07:47:25.965Z,100953.40
2017-11-04T07:50:02.892Z,100956.19
2017-11-04T07:52:39.450Z,100962.32
2017-11-04T07:55:15.865Z,100965.45
2017-11-04T07:57:53.014Z,100973.54
2017-11-04T08:03:07.254Z,100964.84
2017-11-04T08:05:44.449Z,100970.76
2017-11-04T08:08:21.805Z,100973.58
2017-11-04T08:10:58.503Z,100977.02
2017-11-04T08:13:35.765Z,100976.64
2017-11-04T08:16:14.832Z,100988.83
2017-11-04T08:18:55.437Z,100980.84
2017-11-04T08:21:32.127Z,100976.11
2017-11-04T08:24:09.327Z,100983.30
2017-11-04T08:26:46.288Z,100983.39
2017-11-04T08:29:25.222Z,100985.06
2017-11-04T08:32:02.982Z,100983.42
2017-11-04T08:34:43.869Z,100985.20
2017-11-04T08:37:21.322Z,100983.03
2017-11-04T08:40:01.605Z,100987.13
2017-11-04T08:42:43.492Z,100987.69
2017-11-04T08:45:22.186Z,100980.77
2017-11-04T08:48:01.040Z,100985.38
2017-11-04T08:50:39.405Z,100980.18
2017-11-04T08:53:16.431Z,100980.45
2017-11-04T08:55:54.632Z,100971.07
2017-11-04T08:58:23.860Z,100964.95
2017-11-04T09:01:04.294Z,100971.09
2017-11-04T09:03:42.299Z,100970.85
2017-11-04T09:06:23.845Z,100969.09
2017-11-04T09:09:01.806Z,100969.70
2017-11-04T09:11:41.464Z,100966.41
2017-11-04T09:14:18.747Z,100967.44
2017-11-04T09:16:56.909Z,100967.23
2017-11-04T09:19:35.144Z,100971.31
2017-11-04T09:22:16.544Z,100958.91
2017-11-04T09:24:53.952Z,100955.05
2017-11-04T09:27:32.554Z,100960.61
2017-11-04T09:30:09.012Z,100957.91
2017-11-04T09:35:37.953Z,100955.76
2017-11-04T09:38:16.205Z,100952.92
2017-11-04T09:40:52.790Z,100952.36
2017-11-04T09:43:34.173Z,100956.17
2017-11-04T09:46:12.357Z,100956.06
2017-11-04T09:48:49.207Z,100947.92
2017-11-04T09:51:25.867Z,100957.56
2017-11-04T09:54:03.717Z,100957.41
2017-11-04T09:56:40.676Z,100948.56
2017-11-04T09:59:21.798Z,100946.41
2017-11-04T10:02:00.884Z,100951.80
2017-11-04T10:04:42.908Z,100948.54
2017-11-04T10:07:20.025Z,100950.87
2017-11-04T10:09:57.843Z,100943.47
2017-11-04T10:12:34.922Z,100948.27
2017-11-04T10:15:18.740Z,100943.55
2017-11-04T10:17:56.642Z,100940.08
2017-11-04T10:20:34.985Z,100938.39
2017-11-04T10:23:12.378Z,100939.11
2017-11-04T10:25:53.695Z,100943.64
2017-11-04T10:28:28.219Z,100939.05
2017-11-04T10:31:11.395Z,100938.41
2017-11-04T10:33:48.699Z,100944.09
2017-11-04T10:36:31.052Z,100946.46
2017-11-04T10:39:07.679Z,100942.65
2017-11-04T10:44:34.219Z,100944.49
2017-11-04T10:47:13.146Z,100940.36
2017-11-04T10:49:53.948Z,100939.47
2017-11-04T10:52:30.841Z,100940.91
2017-11-04T10:55:09.666Z,100935.74
2017-11-04T10:57:39.641Z,100942.77
2017-11-04T11:00:16.727Z,100941.67
2017-11-04T11:05:38.570Z,100935.55
2017-11-04T11:11:06.311Z,100930.48
2017-11-04T11:16:28.374Z,100933.05
2017-11-04T11:19:05.106Z,100933.23
2017-11-04T11:21:43.859Z,100931.52
2017-11-04T11:24:20.683Z,100936.30
2017-11-04T11:26:57.310Z,100933.37
2017-11-04T11:29:42.017Z,100928.80
2017-11-04T11:32:22.834Z,100925.03
2017-11-04T11:35:05.312Z,100931.01
2017-11-04T11:37:43.667Z,100930.23
2017-11-04T11:40:27.648Z,100937.43
2017-11-04T11:43:04.156Z,100937.41
2017-11-04T11:45:41.704Z,100938.69
2017-11-04T11:48:18.542Z,100934.92
2017-11-04T11:50:58.744Z,100937.80
2017-11-04T11:53:37.850Z,100942.34
2017-11-04T11:56:15.361Z,100949.98
2017-11-04T11:58:56.531Z,100947.23
2017-11-04T12:01:41.517Z,100948.91
2017-11-04T12:04:26.780Z,100951.50
2017-11-04T12:07:03.633Z,100948.91
2017-11-04T12:09:40.197Z,100946.02
2017-11-04T12:12:17.340Z,100951.22
2017-11-04T12:14:56.400Z,100949.89
2017-11-04T12:17:35.844Z,100952.83
2017-11-04T12:20:13.213Z,100952.11
2017-11-04T12:23:01.605Z,100955.17
2017-11-04T12:25:38.419Z,100948.67
2017-11-04T12:28:16.100Z,100954.95
2017-11-04T12:30:52.941Z,100954.55
2017-11-04T12:33:29.889Z,100957.56
2017-11-04T12:36:11.727Z,100954.66
2017-11-04T12:38:49.264Z,100958.66
2017-11-04T12:41:36.550Z,100965.77
2017-11-04T12:44:20.653Z,100965.63
2017-11-04T12:47:02.604Z,100967.34
2017-11-04T12:49:44.737Z,100967.38
2017-11-04T12:52:32.545Z,100967.90
2017-11-04T12:55:08.898Z,100971.97
2017-11-04T12:57:37.910Z,100973.70
2017-11-04T13:00:19.318Z,100972.71
2017-11-04T13:03:00.714Z,100979.20
2017-11-04T13:05:37.199Z,100977.89
2017-11-04T13:08:18.724Z,100977.83
2017-11-04T13:10:57.779Z,100979.20
2017-11-04T13:13:41.177Z,100979.41
2017-11-04T13:16:23.910Z,100986.16
2017-11-04T13:19:00.409Z,100975.29
2017-11-04T13:21:41.896Z,100987.06
2017-11-04T13:24:19.259Z,100984.55
2017-11-04T13:27:00.364Z,100991.73
2017-11-04T13:29:39.032Z,101002.95
2017-11-04T13:35:11.209Z,101004.19
2017-11-04T13:37:50.682Z,101002.41
2017-11-04T13:40:35.893Z,101000.73
2017-11-04T13:43:15.732Z,101002.09
2017-11-04T13:45:52.279Z,101006.69
2017-11-04T13:48:36.033Z,101003.51
2017-11-04T13:51:15.036Z,101012.10
2017-11-04T13:53:51.833Z,101006.63
2017-11-04T13:56:30.800Z,101015.23
2017-11-04T13:59:08.647Z,101015.30
2017-11-04T14:01:49.609Z,101018.27
2017-11-04T14:04:28.086Z,101011.57
2017-11-04T14:07:13.394Z,101014.98
2017-11-04T14:09:56.349Z,101016.27
2017-11-04T14:12:38.096Z,101021.45
2017-11-04T14:15:19.116Z,101014.20
2017-11-04T14:17:55.582Z,101024.02
2017-11-04T14:20:34.407Z,101026.61
2017-11-04T14:23:11.135Z,101024.87
2017-11-04T14:25:48.550Z,101025.31
2017-11-04T14:28:25.821Z,101027.94
2017-11-04T14:31:04.478Z,101030.48
2017-11-04T14:33:41.286Z,101030.11
2017-11-04T14:36:28.464Z,101035.21
2017-11-04T14:39:11.895Z,101030.14
2017-11-04T14:41:53.721Z,101028.00
2017-11-04T14:44:33.007Z,101027.61
2017-11-04T14:47:10.206Z,101028.02
2017-11-04T14:49:52.006Z,101033.63
2017-11-04T14:52:38.661Z,101037.52
2017-11-04T14:55:22.316Z,101041.80
2017-11-04T15:01:05.208Z,101047.85
2017-11-04T15:03:53.961Z,101050.41
2017-11-04T15:06:32.736Z,101056.38
2017-11-04T15:09:05.670Z,101071.47
2017-11-04T15:11:49.627Z,101071.95
2017-11-04T15:14:26.457Z,101073.25
2017-11-04T15:17:07.649Z,101072.84
2017-11-04T15:19:53.351Z,101078.91
2017-11-04T15:22:34.041Z,101080.17
2017-11-04T15:25:11.985Z,101077.23
2017-11-04T15:27:52.266Z,101078.52
2017-11-04T15:30:26.402Z,101082.33
2017-11-04T15:33:08.223Z,101088.25
2017-11-04T15:35:49.826Z,101087.41
2017-11-04T15:38:28.338Z,101092.06
2017-11-04T15:43:54.097Z,101094.61
2017-11-04T15:46:33.061Z,101096.75
2017-11-04T15:49:10.147Z,101101.41
2017-11-04T15:53:40.274Z,101099.72
2017-11-04T15:56:18.320Z,101101.00
2017-11-04T15:58:55.211Z,101098.00
2017-11-04T16:01:32.210Z,101103.16
2017-11-04T16:04:20.429Z,101105.73
2017-11-04T16:07:02.472Z,101104.50
2017-11-04T16:09:43.731Z,101105.78
2017-11-04T16:12:33.498Z,101105.34
2017-11-04T16:15:12.540Z,101106.63
2017-11-04T16:17:51.065Z,101106.27
2017-11-04T16:20:27.758Z,101115.18
2017-11-04T16:23:20.541Z,101112.23
2017-11-04T16:26:09.735Z,101115.22
2017-11-04T16:28:54.228Z,101116.47
2017-11-04T16:34:25.830Z,101116.92
2017-11-04T16:37:04.824Z,101117.78
2017-11-04T16:39:45.193Z,101119.45
2017-11-04T16:42:24.906Z,101125.34
2017-11-04T16:45:04.078Z,101123.62
2017-11-04T16:47:48.240Z,101128.28
2017-11-04T16:50:29.713Z,101130.83
2017-11-04T16:53:12.159Z,101120.59
2017-11-04T17:01:54.567Z,101119.69
2017-11-04T17:04:41.679Z,101124.77
2017-11-04T17:07:23.682Z,101126.47
2017-11-04T17:15:53.698Z,101121.78
2017-11-04T17:21:30.446Z,101132.81
2017-11-04T17:24:12.917Z,101130.28
2017-11-04T17:26:55.021Z,101135.73
2017-11-04T17:35:44.629Z,101131.47
2017-11-04T17:38:22.654Z,101134.86
2017-11-04T17:41:09.703Z,101136.16
2017-11-04T17:49:40.975Z,101137.02
2017-11-04T17:52:22.795Z,101140.88
2017-11-04T17:55:01.115Z,101139.61
2017-11-04T17:57:49.923Z,101143.43
2017-11-04T18:00:35.845Z,101144.72
2017-11-04T18:03:20.588Z,101149.40
2017-11-04T18:06:03.252Z,101144.31
2017-11-04T18:11:44.096Z,101154.54
2017-11-04T18:14:25.757Z,101152.84
2017-11-04T18:17:05.654Z,101156.67
2017-11-04T18:19:52.199Z,101155.83
2017-11-04T18:22:35.849Z,101164.80
2017-11-04T18:25:17.531Z,101164.38
2017-11-04T18:27:56.308Z,101164.80
2017-11-04T18:30:40.603Z,101164.38
2017-11-04T18:33:18.732Z,101165.23
2017-11-04T18:35:58.438Z,101172.02
2017-11-04T18:38:36.842Z,101171.17
2017-11-04T18:41:21.092Z,101179.25
2017-11-04T18:44:02.993Z,101171.64
2017-11-04T20:19:28.543Z,101201.33
2017-11-04T20:21:58.805Z,101206.47
2017-11-04T20:24:39.998Z,101203.92
2017-11-04T20:27:18.361Z,101202.22
2017-11-04T20:30:09.262Z,101199.67
2017-11-04T20:35:34.680Z,101198.41
2017-11-04T20:38:04.808Z,101199.26
2017-11-04T20:40:47.017Z,101203.08
2017-11-04T20:43:25.508Z,101199.26
2017-11-04T20:46:05.951Z,101203.13
2017-11-04T20:48:36.088Z,101198.06
2017-11-04T20:54:08.296Z,101203.55
2017-11-04T20:56:49.539Z,101198.41
2017-11-04T20:59:19.662Z,101195.08
2017-11-04T21:02:01.018Z,101197.62
2017-11-04T21:04:45.293Z,101192.47
2017-11-04T21:07:28.663Z,101189.49
2017-11-04T21:10:06.496Z,101194.16
2017-11-04T21:12:44.663Z,101186.52
2017-11-04T21:15:24.558Z,101191.62
2017-11-04T21:18:03.833Z,101192.04
2017-11-04T21:20:43.995Z,101191.60
2017-11-04T21:23:28.127Z,101193.31
2017-11-04T21:26:08.260Z,101192.46
2017-11-04T21:28:46.536Z,101191.61
2017-11-04T21:31:20.041Z,101190.77
2017-11-04T21:33:58.138Z,101196.70
2017-11-04T21:36:38.635Z,101198.40
2017-11-04T21:39:23.568Z,101203.08
2017-11-04T21:42:01.871Z,101204.34
2017-11-04T21:47:34.453Z,101196.66
2017-11-04T21:50:16.913Z,101197.50
2017-11-04T21:52:57.365Z,101198.36
2017-11-04T21:55:40.855Z,101191.98
2017-11-04T21:58:30.559Z,101196.66
2017-11-04T22:01:15.150Z,101194.15
2017-11-04T22:03:53.253Z,101188.59
2017-11-04T22:06:31.786Z,101185.19
2017-11-04T22:09:09.491Z,101187.73
2017-11-04T22:11:52.717Z,101187.31
2017-11-04T22:14:31.476Z,101184.77
2017-11-04T22:17:11.835Z,101181.80
2017-11-04T22:19:52.194Z,101179.23
2017-11-04T22:22:32.561Z,101176.25
2017-11-04T22:25:23.246Z,101179.66
2017-11-04T22:28:07.033Z,101179.59
2017-11-04T22:30:54.651Z,101168.98
2017-11-04T22:36:30.155Z,101171.04
2017-11-04T22:39:10.082Z,101171.45
2017-11-04T22:41:59.641Z,101173.16
2017-11-04T22:44:46.122Z,101171.45
2017-11-04T22:47:29.923Z,101165.94
2017-11-04T22:50:10.100Z,101163.81
2017-11-04T22:52:54.228Z,101154.47
2017-11-04T22:55:31.841Z,101156.59
2017-11-04T23:01:34.813Z,101151.09
2017-11-04T23:04:15.634Z,101147.70
2017-11-04T23:06:57.448Z,101154.11
2017-11-04T23:09:36.653Z,101147.27
2017-11-04T23:12:21.100Z,101149.39
2017-11-04T23:20:49.704Z,101151.08
2017-11-04T23:23:29.831Z,101140.47
2017-11-04T23:26:13.151Z,101146.00
2017-11-04T23:28:56.823Z,101144.73
2017-11-04T23:31:35.039Z,101143.02
2017-11-04T23:34:20.077Z,101140.91
2017-11-04T23:36:53.512Z,101141.73
2017-11-04T23:39:39.822Z,101143.00
2017-11-04T23:42:17.751Z,101147.25
2017-11-04T23:44:56.183Z,101143.80
2017-11-04T23:47:35.289Z,101137.00
2017-11-04T23:50:21.677Z,101138.67
2017-11-04T23:52:59.540Z,101143.31
2017-11-04T23:55:41.793Z,101137.33
2017-11-04T23:58:19.698Z,101143.69
